Time;durP1;ratioP1;P1;durP2;ratioP2;P2;SDS_P1;SDS_P2;PMS_P1;PMS_P2;Temp;Humidity;BMP_temperature;BMP_pressure;BME280_temperature;BME280_humidity;BME280_pressure;Samples;Min_cycle;Max_cycle;Signal;HPM_P1;HPM_P2
2022/03/19 00:00:23;;;;;;;35.60;23.27;;;11.30;58.20;;;-142.21;92.35;112049.66;5075545;28;20447;-79
2022/03/19 00:03:06;;;;;;;39.47;24.03;;;11.20;58.30;;;-142.21;91.80;112049.66;5075015;28;20786;-77
2022/03/19 00:06:37;;;;;;;37.97;22.43;;;11.10;58.80;;;-142.21;93.02;112049.66;5075980;28;20439;-79
2022/03/19 00:10:16;;;;;;;37.57;23.10;;;11.10;58.90;;;-142.21;91.84;112049.66;5075737;28;20486;-78
2022/03/19 00:12:55;;;;;;;31.60;20.70;;;11.10;59.00;;;-142.21;92.49;112049.66;5068875;28;20535;-77
2022/03/19 00:15:22;;;;;;;38.43;22.53;;;11.00;59.50;;;-142.21;92.87;112049.66;5075531;28;20454;-79
2022/03/19 00:17:53;;;;;;;37.37;23.00;;;11.00;59.20;;;-142.21;92.63;112049.66;5074929;28;20486;-79
2022/03/19 00:20:27;;;;;;;36.00;22.77;;;11.00;58.70;;;-142.21;92.17;112049.66;5075209;28;20499;-76
2022/03/19 00:22:58;;;;;;;32.40;22.07;;;11.10;58.90;;;-142.21;92.19;112049.66;5074948;28;20943;-79
2022/03/19 00:25:26;;;;;;;32.93;21.17;;;11.10;58.70;;;-142.21;92.62;112049.66;5075370;28;20444;-79
2022/03/19 00:28:05;;;;;;;32.97;20.60;;;11.00;59.10;;;-142.21;95.30;112049.66;5074312;28;20452;-77
2022/03/19 00:31:11;;;;;;;38.77;24.73;;;10.90;60.20;;;-142.21;92.21;112049.66;5074517;28;20431;-79
2022/03/19 00:33:53;;;;;;;38.13;23.23;;;10.80;59.70;;;-142.21;92.77;112049.66;5012774;28;20957;-80
2022/03/19 00:36:20;;;;;;;33.17;21.93;;;10.90;59.30;;;-142.21;93.81;112049.66;5013046;28;20484;-77
2022/03/19 00:38:49;;;;;;;32.30;21.40;;;10.90;59.40;;;-142.21;93.02;112049.66;5013063;28;20534;-80
2022/03/19 00:41:21;;;;;;;31.43;20.73;;;10.90;59.60;;;-142.21;93.22;112049.66;5012288;28;20549;-79
2022/03/19 00:43:51;;;;;;;33.37;21.70;;;10.90;59.60;;;-142.21;93.25;112049.66;5013016;28;20438;-77
2022/03/19 00:46:26;;;;;;;36.10;21.93;;;10.90;59.40;;;-142.21;92.57;112049.66;5011629;28;20482;-76
2022/03/19 00:48:53;;;;;;;32.80;21.27;;;10.90;59.30;;;-142.21;93.29;112049.66;5013085;28;20516;-81
2022/03/19 00:51:36;;;;;;;36.03;22.13;;;10.80;59.30;;;-142.21;93.80;112049.66;5012185;28;20843;-80
2022/03/19 00:54:26;;;;;;;34.83;21.17;;;10.90;59.20;;;-142.21;93.85;112049.66;5012579;28;20458;-79
2022/03/19 00:57:00;;;;;;;33.50;21.37;;;10.90;59.60;;;-142.21;92.56;112049.66;5012578;28;20478;-79
2022/03/19 01:00:12;;;;;;;34.63;20.87;;;10.90;59.10;;;-142.21;93.46;112049.66;5012179;28;20533;-80
2022/03/19 01:02:49;;;;;;;37.47;21.57;;;10.90;59.20;;;-142.21;93.33;112049.66;5012235;28;20860;-77
2022/03/19 01:05:34;;;;;;;30.93;22.03;;;10.80;59.60;;;-142.21;95.09;112049.66;5072089;28;20443;-80
2022/03/19 01:08:35;;;;;;;31.80;21.97;;;10.70;60.00;;;-142.21;94.53;112049.66;5074142;28;20475;-81
2022/03/19 01:18:45;;;;;;;31.17;21.13;;;10.80;59.70;;;-142.21;93.50;112049.66;5047123;28;20971;-77
2022/03/19 01:25:15;;;;;;;29.07;20.37;;;10.70;59.70;;;-142.21;94.00;112049.66;5092916;28;20446;-80
2022/03/19 01:28:09;;;;;;;34.17;20.53;;;10.80;59.70;;;-142.21;94.53;112049.66;5072156;28;20454;-77
2022/03/19 01:31:14;;;;;;;32.30;21.27;;;10.70;60.00;;;-142.21;94.44;112049.66;5073360;28;20451;-81
2022/03/19 01:37:16;;;;;;;31.80;20.50;;;10.60;60.30;;;-142.21;95.16;112049.66;5064038;28;20540;-80
2022/03/19 01:39:59;;;;;;;30.73;20.67;;;10.70;59.90;;;-142.21;94.48;112049.66;5073022;28;20792;-76
2022/03/19 01:42:38;;;;;;;29.20;19.13;;;10.70;60.10;;;-142.21;94.33;112049.66;5073743;28;20431;-81
2022/03/19 01:45:39;;;;;;;31.60;20.67;;;10.70;60.00;;;-142.21;94.57;112049.66;5072997;28;21052;-80
2022/03/19 01:48:15;;;;;;;29.63;19.70;;;10.70;60.80;;;-142.21;94.49;112049.66;5077237;28;20439;-77
2022/03/19 01:50:50;;;;;;;28.33;18.67;;;10.80;59.60;;;-142.21;94.05;112049.66;5090912;28;20567;-80
2022/03/19 01:53:25;;;;;;;29.40;19.53;;;10.70;59.70;;;-142.21;93.79;112049.66;5091511;28;20449;-79
2022/03/19 01:55:58;;;;;;;29.40;19.23;;;10.70;60.00;;;-142.21;94.66;112049.66;5108589;28;20438;-76
2022/03/19 01:58:26;;;;;;;33.97;20.83;;;10.70;59.90;;;-142.21;95.17;112049.66;5093300;28;20485;-79
2022/03/19 02:00:58;;;;;;;33.87;21.07;;;10.60;60.00;;;-142.21;94.55;112049.66;5092811;28;21018;-79
2022/03/19 02:03:25;;;;;;;36.00;20.30;;;10.60;60.10;;;-142.21;95.28;112049.66;5093758;28;20431;-77
2022/03/19 02:06:26;;;;;;;28.13;18.93;;;10.70;59.80;;;-142.21;95.45;112049.66;5093115;28;20443;-77
2022/03/19 02:08:54;;;;;;;29.93;19.70;;;10.70;60.00;;;-142.21;94.19;112049.66;5093170;28;20550;-79
2022/03/19 02:11:45;;;;;;;32.17;20.47;;;10.80;59.40;;;-142.21;94.36;112049.66;5090374;28;20448;-80
2022/03/19 02:14:35;;;;;;;32.27;20.27;;;10.80;59.60;;;-142.21;94.79;112049.66;5082975;28;20446;-76
2022/03/19 02:17:10;;;;;;;34.50;20.00;;;10.70;59.70;;;-142.21;95.18;112049.66;5080513;28;23522;-77
2022/03/19 02:19:57;;;;;;;31.10;20.57;;;10.50;60.20;;;-142.21;95.31;112049.66;5092927;28;20964;-80
2022/03/19 02:25:34;;;;;;;29.07;19.93;;;10.50;60.00;;;-142.21;94.41;112049.66;5093366;28;20488;-76
2022/03/19 02:25:52;;;;;;;31.23;20.13;;;10.60;60.00;;;-142.21;94.39;112049.66;5081548;28;20443;-76
2022/03/19 02:29:23;;;;;;;31.73;20.00;;;10.60;59.90;;;-142.21;95.29;112049.66;5086170;28;20443;-79
2022/03/19 02:32:02;;;;;;;26.50;18.03;;;10.70;60.10;;;-142.21;95.10;112049.66;5072718;28;20530;-77
2022/03/19 02:34:45;;;;;;;30.20;19.23;;;10.70;59.70;;;-142.21;95.70;112049.66;5080955;28;20472;-77
2022/03/19 02:37:28;;;;;;;27.60;19.00;;;10.80;59.80;;;-142.21;95.45;112049.66;5089905;28;20508;-76
2022/03/19 02:40:39;;;;;;;29.07;18.83;;;10.70;59.40;;;-142.21;95.00;112049.66;5093248;28;20530;-76
2022/03/19 02:43:29;;;;;;;29.53;19.57;;;10.70;59.80;;;-142.21;95.12;112049.66;5092816;28;20484;-79
2022/03/19 02:46:01;;;;;;;32.60;19.93;;;10.70;59.50;;;-142.21;95.33;112049.66;5092763;28;20479;-80
2022/03/19 02:48:40;;;;;;;29.70;18.53;;;10.60;59.40;;;-142.21;95.19;112049.66;5092566;28;20431;-80
2022/03/19 02:54:08;;;;;;;31.13;19.70;;;10.70;59.50;;;-142.21;94.54;112049.66;5090833;28;20561;-77
2022/03/19 02:56:59;;;;;;;32.23;18.97;;;10.60;59.60;;;-142.21;95.02;112049.66;5092236;28;20472;-80
2022/03/19 02:59:42;;;;;;;28.13;18.30;;;10.50;60.00;;;-142.21;95.98;112049.66;5092404;28;20521;-76
2022/03/19 03:02:30;;;;;;;;;;;;;;;;;;;;;
2022/03/19 03:05:15;;;;;;;27.63;18.90;;;10.40;60.30;;;-142.21;94.63;112049.66;5092773;28;20448;-78
2022/03/19 03:07:56;;;;;;;30.20;18.63;;;10.30;60.30;;;-142.21;95.35;112049.66;5092503;28;20450;-80
2022/03/19 03:10:36;;;;;;;29.53;18.50;;;10.20;60.80;;;-142.21;94.25;112049.66;5092876;28;20449;-80
2022/03/19 03:13:22;;;;;;;29.30;19.10;;;10.30;60.50;;;-142.21;96.31;112049.66;5072873;28;20470;-80
2022/03/19 03:16:02;;;;;;;29.90;18.80;;;10.30;60.20;;;-142.21;95.04;112049.66;5072222;28;20443;-80
2022/03/19 03:18:50;;;;;;;31.37;20.33;;;10.30;60.10;;;-142.21;94.78;112049.66;5072210;28;20482;-77
2022/03/19 03:24:29;;;;;;;30.17;18.70;;;10.40;60.20;;;-142.21;95.19;112049.66;5078146;28;20859;-80
2022/03/19 03:26:57;;;;;;;29.53;17.90;;;10.40;60.10;;;-142.21;95.14;112049.66;5091817;28;20518;-79
2022/03/19 03:29:54;;;;;;;33.57;21.10;;;10.30;60.00;;;-142.21;95.22;112049.66;5092653;28;20446;-78
2022/03/19 03:32:43;;;;;;;34.40;18.53;;;10.40;60.00;;;-142.21;95.89;112049.66;5091494;28;20841;-80
2022/03/19 03:35:25;;;;;;;28.53;18.63;;;10.20;60.80;;;-142.21;95.78;112049.66;5092111;28;20481;-79
2022/03/19 03:38:10;;;;;;;33.83;20.03;;;10.20;60.50;;;-142.21;95.29;112049.66;5092046;28;20581;-78
2022/03/19 03:40:37;;;;;;;30.83;20.27;;;10.20;60.60;;;-142.21;95.54;112049.66;5101353;28;20459;-80
2022/03/19 03:43:50;;;;;;;30.63;19.30;;;10.30;60.20;;;-142.21;97.41;112049.66;5087238;28;20501;-78
2022/03/19 03:46:46;;;;;;;29.57;18.57;;;10.20;60.80;;;-142.21;95.36;112049.66;5086428;28;20483;-78
2022/03/19 03:49:21;;;;;;;29.00;18.17;;;10.10;60.90;;;-142.21;96.04;112049.66;5086283;28;20468;-79
2022/03/19 03:52:39;;;;;;;32.43;20.37;;;10.20;61.20;;;-142.21;95.81;112049.66;5090920;28;20466;-78
2022/03/19 03:55:50;;;;;;;32.07;19.43;;;10.20;60.80;;;-142.21;96.27;112049.66;5063529;28;20563;-79
2022/03/19 04:01:58;;;;;;;29.80;17.83;;;10.30;60.60;;;-142.21;97.31;112049.66;5048461;28;20463;-77
2022/03/19 04:08:18;;;;;;;32.37;19.37;;;10.20;61.20;;;-142.21;96.44;112049.66;5011740;28;20429;-82
2022/03/19 04:10:47;;;;;;;32.40;20.13;;;10.00;60.80;;;-142.21;96.84;112049.66;5033568;28;20953;-78
2022/03/19 04:13:35;;;;;;;30.57;18.97;;;10.00;61.30;;;-142.21;96.20;112049.66;5033260;28;20961;-77
2022/03/19 04:16:05;;;;;;;31.83;19.27;;;10.00;61.30;;;-142.21;97.86;112049.66;5033404;28;20453;-77
2022/03/19 04:19:46;;;;;;;32.07;19.47;;;10.10;61.10;;;-142.21;96.28;112049.66;5032135;28;20473;-80
2022/03/19 04:22:23;;;;;;;30.87;19.93;;;10.00;61.50;;;-142.21;96.73;112049.66;5033387;28;20541;-76
2022/03/19 04:24:56;;;;;;;30.10;18.40;;;10.10;61.30;;;-142.21;97.14;112049.66;5034145;28;20491;-79
2022/03/19 04:27:46;;;;;;;28.83;19.40;;;10.10;60.80;;;-142.21;97.04;112049.66;5052983;28;20452;-79
2022/03/19 04:30:31;;;;;;;29.57;18.47;;;10.10;61.50;;;-142.21;96.86;112049.66;5052959;28;20935;-76
2022/03/19 04:33:11;;;;;;;28.97;19.17;;;9.90;63.20;;;-142.21;96.42;112049.66;5052656;28;20503;-78
2022/03/19 04:39:02;;;;;;;27.30;18.37;;;10.00;61.10;;;-142.21;96.70;112049.66;5065611;28;20482;-79
2022/03/19 04:44:51;;;;;;;28.80;18.20;;;9.90;62.90;;;-142.21;97.90;112049.66;5073565;28;20915;-80
2022/03/19 04:47:38;;;;;;;34.13;19.00;;;9.90;62.60;;;-142.21;96.50;112049.66;5084496;28;20818;-79
2022/03/19 04:51:02;;;;;;;30.23;19.03;;;10.00;61.90;;;-142.21;96.97;112049.66;5094947;28;20508;-79
2022/03/19 04:54:03;;;;;;;28.50;18.43;;;9.80;63.00;;;-142.21;96.17;112049.66;5051957;28;20452;-76
2022/03/19 04:57:04;;;;;;;28.27;18.00;;;9.80;63.30;;;-142.21;96.48;112049.66;5094930;28;20879;-80
2022/03/19 05:00:36;;;;;;;27.37;18.43;;;9.90;63.00;;;-142.21;96.59;112049.66;5094799;28;20565;-80
2022/03/19 05:06:49;;;;;;;29.97;18.60;;;9.70;63.70;;;-142.21;97.01;112049.66;5064316;28;20482;-77
2022/03/19 05:16:34;;;;;;;30.67;19.53;;;9.60;63.00;;;-142.21;97.45;112049.66;5068263;28;20448;-76
2022/03/19 05:19:07;;;;;;;29.90;18.40;;;9.70;63.50;;;-142.21;97.41;112049.66;5075174;28;20545;-80
2022/03/19 05:21:45;;;;;;;37.93;21.13;;;9.60;63.30;;;-142.21;97.36;112049.66;5093663;28;20473;-79
2022/03/19 05:24:20;;;;;;;30.60;20.20;;;9.60;64.00;;;-142.21;97.58;112049.66;5094686;28;20517;-79
2022/03/19 05:26:50;;;;;;;28.60;18.07;;;9.70;63.40;;;-142.21;96.94;112049.66;5094415;28;20502;-79
2022/03/19 07:38:43;;;;;;;24.23;14.27;;;12.50;53.90;;;-142.21;90.74;112049.66;5527547;23;20477;-77
2022/03/19 07:44:05;;;;;;;21.20;14.00;;;12.70;53.80;;;-142.21;88.97;112049.66;5019507;28;20472;-76
2022/03/19 07:46:36;;;;;;;24.17;15.23;;;13.00;53.20;;;-142.21;89.57;112049.66;5030742;28;20442;-82
2022/03/19 07:49:04;;;;;;;24.20;14.50;;;13.00;53.60;;;-142.21;89.06;112049.66;5015411;28;20454;-76
2022/03/19 07:51:33;;;;;;;21.37;13.77;;;12.70;53.10;;;-142.21;86.65;112049.66;5016590;28;20453;-80
2022/03/19 07:54:04;;;;;;;20.07;13.50;;;12.60;52.70;;;-142.21;88.29;112049.66;5001965;28;20538;-76
2022/03/19 07:56:43;;;;;;;21.43;13.70;;;12.30;53.70;;;-142.21;87.14;112049.66;5003331;28;20446;-75
2022/03/19 07:59:10;;;;;;;21.70;14.93;;;12.10;53.80;;;-142.21;87.78;112049.66;5015245;28;20490;-78
2022/03/19 08:01:53;;;;;;;25.83;13.10;;;12.20;53.90;;;-142.21;85.97;112049.66;5015683;28;20453;-80
2022/03/19 08:04:26;;;;;;;24.07;14.73;;;12.20;53.40;;;-142.21;86.28;112049.66;5015904;28;20438;-79
2022/03/19 08:06:56;;;;;;;18.90;13.17;;;12.20;54.10;;;-142.21;85.88;112049.66;5016149;28;20509;-77
2022/03/19 08:12:10;;;;;;;22.13;15.10;;;12.20;53.80;;;-142.21;85.20;112049.66;5005145;28;20536;-80
2022/03/19 08:14:41;;;;;;;22.93;14.37;;;12.20;53.60;;;-142.21;83.81;112049.66;5015733;28;20450;-78
2022/03/19 08:19:56;;;;;;;22.60;15.00;;;12.50;52.90;;;-142.21;83.46;112049.66;5012742;28;20516;-75
2022/03/19 08:22:23;;;;;;;22.30;14.63;;;12.50;52.60;;;-142.21;84.28;112049.66;5014943;28;20449;-78
2022/03/19 08:24:53;;;;;;;21.93;14.63;;;12.50;52.70;;;-142.21;81.86;112049.66;5015379;28;20461;-77
2022/03/19 08:27:22;;;;;;;24.00;15.93;;;12.40;52.10;;;-142.21;81.94;112049.66;5014683;28;20465;-77
2022/03/19 08:29:51;;;;;;;24.63;16.13;;;12.60;52.20;;;-142.21;84.26;112049.66;5012025;28;20966;-78
2022/03/19 08:32:26;;;;;;;23.77;15.67;;;12.60;52.00;;;-142.21;80.95;112049.66;5014388;28;20476;-79
2022/03/19 08:34:56;;;;;;;22.40;14.83;;;12.70;51.80;;;-142.21;80.68;112049.66;5012759;28;20934;-77
2022/03/19 08:37:36;;;;;;;22.40;14.20;;;12.70;51.80;;;-142.21;80.10;112049.66;5014384;28;20458;-77
2022/03/19 08:40:17;;;;;;;22.10;15.50;;;12.70;51.70;;;-142.21;80.67;112049.66;5002592;28;20483;-76
2022/03/19 08:42:51;;;;;;;23.67;15.73;;;12.80;51.90;;;-142.21;79.55;112049.66;4976136;28;20487;-79
2022/03/19 08:45:20;;;;;;;23.47;16.03;;;12.80;51.70;;;-142.21;78.53;112049.66;4976033;28;20436;-79
2022/03/19 08:47:47;;;;;;;22.97;16.13;;;12.90;51.50;;;-142.21;76.97;112049.66;4991527;28;20547;-78
2022/03/19 08:50:17;;;;;;;25.03;16.17;;;13.10;50.80;;;-142.21;75.58;112049.66;4977194;28;20540;-77
2022/03/19 08:52:44;;;;;;;25.37;16.70;;;13.10;50.70;;;-142.21;76.85;112049.66;4976159;28;20440;-78
2022/03/19 08:55:13;;;;;;;24.37;16.77;;;13.30;50.60;;;-142.21;75.16;112049.66;4983172;28;20476;-78
2022/03/19 08:57:40;;;;;;;21.73;16.63;;;13.40;50.20;;;-142.21;71.98;112049.66;4975557;28;20452;-78
2022/03/19 09:00:10;;;;;;;24.23;16.90;;;13.60;49.50;;;-142.21;69.53;112049.66;4975529;28;20511;-78
2022/03/19 09:02:40;;;;;;;22.27;16.27;;;14.20;49.20;;;-142.21;69.74;112049.66;4977143;28;20459;-76
2022/03/19 09:05:08;;;;;;;24.37;17.20;;;14.70;47.70;;;-142.21;70.70;112049.66;4982603;28;20447;-82
2022/03/19 09:07:36;;;;;;;21.77;16.83;;;15.50;47.50;;;-142.21;67.56;112049.66;4996007;28;20487;-77
2022/03/19 09:10:04;;;;;;;25.13;16.77;;;16.40;45.00;;;-142.21;66.94;112049.66;4994794;28;20501;-79
2022/03/19 09:12:33;;;;;;;21.83;16.93;;;17.50;44.60;;;-142.21;62.52;112049.66;4995001;28;20455;-75
2022/03/19 09:15:00;;;;;;;23.00;17.83;;;18.10;40.10;;;-142.21;61.02;112049.66;4994311;28;20286;-80
2022/03/19 09:17:30;;;;;;;21.10;16.80;;;18.80;40.20;;;-142.21;60.60;112049.66;4994832;28;20353;-83
2022/03/19 09:19:57;;;;;;;21.03;17.23;;;20.00;39.30;;;-142.21;58.01;112049.66;4994675;28;20266;-83
2022/03/19 09:22:25;;;;;;;24.00;18.10;;;20.40;37.50;;;-142.21;58.08;112049.66;4989780;28;20210;-78
2022/03/19 09:24:52;;;;;;;22.77;18.57;;;21.00;36.30;;;-142.21;58.30;112049.66;4989443;28;20204;-84
2022/03/19 09:27:19;;;;;;;21.90;17.63;;;21.80;36.30;;;-142.21;55.92;112049.66;4992576;28;20676;-80
2022/03/19 09:29:48;;;;;;;22.87;18.33;;;22.10;35.50;;;-142.21;51.66;112049.66;4980071;28;20612;-84
2022/03/19 09:32:18;;;;;;;21.37;18.73;;;22.10;32.60;;;-142.21;55.27;112049.66;4993897;28;20195;-80
2022/03/19 09:34:47;;;;;;;22.83;18.70;;;22.30;35.20;;;-142.21;54.15;112049.66;4981147;28;20291;-76
2022/03/19 09:37:15;;;;;;;23.50;18.83;;;22.60;34.10;;;-142.21;52.71;112049.66;4978417;28;20205;-77
2022/03/19 09:39:42;;;;;;;20.93;17.77;;;22.70;32.70;;;-142.21;58.06;112049.66;4974364;28;20663;-80
2022/03/19 09:42:13;;;;;;;22.80;18.57;;;23.80;34.50;;;-142.21;49.92;112049.66;4989482;28;20364;-82
2022/03/19 09:44:43;;;;;;;22.33;19.13;;;24.20;31.40;;;-142.21;50.33;112049.66;4994548;28;20277;-78
2022/03/19 09:47:13;;;;;;;22.37;19.93;;;24.20;30.30;;;-142.21;49.64;112049.66;4995500;28;20206;-85
2022/03/19 09:49:40;;;;;;;25.97;19.57;;;24.10;31.40;;;-142.21;48.31;112049.66;4995537;28;20198;-83
2022/03/19 09:52:13;;;;;;;22.67;19.40;;;23.60;30.60;;;-142.21;47.38;112049.66;4992461;28;20669;-86
2022/03/19 09:54:43;;;;;;;27.43;20.03;;;23.90;30.50;;;-142.21;48.56;112049.66;4974941;28;20320;-81
2022/03/19 09:57:10;;;;;;;23.20;20.10;;;23.80;31.10;;;-142.21;47.28;112049.66;4974466;28;20684;-84
2022/03/19 09:59:37;;;;;;;22.83;20.23;;;24.30;31.40;;;-142.21;45.50;112049.66;4975076;28;20325;-79
2022/03/19 10:02:07;;;;;;;24.93;21.27;;;24.50;30.00;;;-142.21;47.39;112049.66;4974024;28;20288;-83
2022/03/19 10:04:40;;;;;;;25.50;20.83;;;24.80;30.90;;;-142.21;46.42;112049.66;4985501;28;20238;-81
2022/03/19 10:09:56;;;;;;;25.87;21.37;;;25.20;29.20;;;-142.21;45.10;112049.66;4993636;28;20615;-76
2022/03/19 10:12:27;;;;;;;25.60;22.07;;;25.00;30.00;;;-142.21;44.86;112049.66;4993079;28;20666;-78
2022/03/19 10:14:58;;;;;;;27.00;22.83;;;25.40;30.70;;;-142.21;43.60;112049.66;4994093;28;20564;-82
2022/03/19 10:17:31;;;;;;;26.00;22.07;;;25.60;29.00;;;-142.21;42.89;112049.66;4993832;28;20240;-78
2022/03/19 10:20:09;;;;;;;26.43;23.50;;;25.40;29.20;;;-142.21;40.77;112049.66;4994782;28;20239;-77
2022/03/19 10:22:40;;;;;;;29.90;22.03;;;25.30;28.80;;;-142.21;40.76;112049.66;4994141;28;20208;-83
2022/03/19 10:25:11;;;;;;;25.27;22.30;;;24.90;29.40;;;-142.21;39.81;112049.66;4993644;28;20234;-83
2022/03/19 10:27:43;;;;;;;25.40;22.33;;;25.20;30.10;;;-142.21;39.05;112049.66;4994635;28;20219;-80
2022/03/19 10:30:16;;;;;;;25.47;21.67;;;25.60;29.00;;;-142.21;36.52;112049.66;4993720;28;20242;-81
2022/03/19 10:32:49;;;;;;;28.57;22.53;;;25.50;28.90;;;-142.21;35.93;112049.66;4992744;28;20212;-82
2022/03/19 10:35:39;;;;;;;26.53;23.00;;;25.40;28.80;;;-142.21;33.66;112049.66;4978502;28;20234;-80
2022/03/19 10:38:19;;;;;;;26.53;23.40;;;24.70;27.90;;;-142.21;35.20;112049.66;4982030;28;20734;-82
2022/03/19 10:40:48;;;;;;;27.30;23.33;;;24.60;28.90;;;-142.21;32.54;112049.66;4993277;28;20308;-80
2022/03/19 10:43:22;;;;;;;26.60;23.73;;;24.90;29.10;;;-142.21;31.58;112049.66;4994239;28;20211;-78
2022/03/19 10:45:51;;;;;;;29.17;23.00;;;24.20;27.90;;;-142.21;30.47;112049.66;4993348;28;20221;-77
2022/03/19 10:48:20;;;;;;;24.63;22.03;;;24.50;29.50;;;-142.21;29.90;112049.66;4993884;28;20214;-83
2022/03/19 10:50:50;;;;;;;24.57;21.97;;;24.60;28.90;;;-142.21;30.08;112049.66;4993192;28;20210;-81
2022/03/19 10:53:20;;;;;;;25.40;21.27;;;24.70;28.90;;;-142.21;28.63;112049.66;4994421;28;20230;-78
2022/03/19 10:55:54;;;;;;;23.97;21.33;;;25.20;28.70;;;-142.21;26.99;112049.66;4994801;28;20245;-86
2022/03/19 10:58:22;;;;;;;24.40;20.93;;;25.20;27.40;;;-142.21;26.99;112049.66;4993506;28;20229;-83
2022/03/19 11:00:53;;;;;;;24.10;21.53;;;24.90;27.20;;;-142.21;26.68;112049.66;4979614;28;20352;-85
2022/03/19 11:03:24;;;;;;;25.60;21.80;;;24.70;27.60;;;-142.21;26.77;112049.66;4975914;28;20201;-85
2022/03/19 11:05:58;;;;;;;27.07;20.97;;;25.30;28.30;;;-142.21;26.74;112049.66;4998972;28;20199;-86
2022/03/19 11:08:28;;;;;;;22.53;19.80;;;25.90;27.60;;;-142.21;25.85;112049.66;5013951;28;20284;-81
2022/03/19 11:11:00;;;;;;;21.27;17.43;;;26.00;26.60;;;-142.21;25.91;112049.66;5013925;28;20210;-84
2022/03/19 11:13:35;;;;;;;21.53;19.17;;;25.50;25.90;;;-142.21;26.61;112049.66;5014302;28;20257;-83
2022/03/19 11:16:03;;;;;;;21.77;17.93;;;25.50;27.50;;;-142.21;25.64;112049.66;5017608;28;20241;-82
2022/03/19 11:18:31;;;;;;;18.60;16.60;;;25.50;26.50;;;-142.21;25.76;112049.66;5018105;28;20215;-83
2022/03/19 11:21:00;;;;;;;19.57;16.53;;;25.20;26.40;;;-142.21;26.14;112049.66;5018698;28;20230;-83
2022/03/19 11:23:39;;;;;;;16.37;14.33;;;25.00;26.70;;;-142.21;25.26;112049.66;5019455;28;20240;-85
2022/03/19 11:26:11;;;;;;;15.70;13.53;;;25.10;26.70;;;-142.21;25.07;112049.66;5019218;28;20210;-81
2022/03/19 11:28:39;;;;;;;13.53;11.70;;;25.70;26.80;;;-142.21;25.06;112049.66;5018582;28;20211;-83
2022/03/19 11:31:08;;;;;;;14.17;11.23;;;25.70;25.80;;;-142.21;24.27;112049.66;5018905;28;20253;-83
2022/03/19 11:33:42;;;;;;;19.73;12.20;;;25.80;25.10;;;-142.21;25.23;112049.66;5017977;28;20313;-85
2022/03/19 11:36:12;;;;;;;14.50;11.90;;;25.40;24.90;;;-142.21;27.02;112049.66;5017687;28;20202;-85
2022/03/19 11:38:51;;;;;;;13.07;11.17;;;25.30;25.30;;;-142.21;29.08;112049.66;5016577;28;20715;-88
2022/03/19 11:41:26;;;;;;;14.13;11.40;;;24.90;25.40;;;-142.21;30.45;112049.66;5017014;28;20272;-86
2022/03/19 11:44:18;;;;;;;12.87;11.30;;;25.30;26.40;;;-142.21;31.32;112049.66;5017881;28;20179;-84
2022/03/19 11:47:06;;;;;;;14.63;11.53;;;25.90;25.30;;;-142.21;32.12;112049.66;5000029;28;20210;-84
2022/03/19 11:49:52;;;;;;;11.93;10.63;;;26.20;25.00;;;-142.21;32.18;112049.66;4997428;28;20338;-87
2022/03/19 11:53:05;;;;;;;12.13;9.13;;;25.60;24.70;;;-142.21;32.74;112049.66;4998666;28;20280;-87
2022/03/19 11:55:39;;;;;;;12.40;8.43;;;25.30;25.60;;;-142.21;31.82;112049.66;4997147;28;20656;-80
2022/03/19 11:58:15;;;;;;;9.97;8.23;;;25.30;25.20;;;-142.21;32.77;112049.66;4998961;28;20707;-83
2022/03/19 12:00:44;;;;;;;9.90;7.53;;;26.00;25.60;;;-142.21;31.68;112049.66;4997721;28;20226;-84
2022/03/19 12:03:15;;;;;;;7.90;7.10;;;26.00;24.50;;;-142.21;31.02;112049.66;4997764;28;20204;-85
2022/03/19 12:05:45;;;;;;;11.83;7.83;;;26.20;24.20;;;-142.21;32.77;112049.66;4998959;28;20619;-87
2022/03/19 12:08:19;;;;;;;8.60;7.27;;;26.00;24.30;;;-142.21;33.49;112049.66;4999727;28;20619;-89
2022/03/19 12:11:04;;;;;;;8.87;7.10;;;26.40;25.10;;;-142.21;32.93;112049.66;4998278;28;20286;-78
2022/03/19 12:13:52;;;;;;;9.63;7.97;;;27.00;24.70;;;-142.21;32.49;112049.66;4997657;28;20245;-86
2022/03/19 12:16:40;;;;;;;8.97;7.47;;;25.90;24.80;;;-142.21;31.49;112049.66;4996392;28;20356;-79
2022/03/19 12:19:09;;;;;;;9.23;7.10;;;24.80;24.80;;;-142.21;32.37;112049.66;4996339;28;20252;-78
2022/03/19 12:21:38;;;;;;;9.13;6.70;;;24.70;25.40;;;-142.21;32.27;112049.66;4996218;28;20296;-78
2022/03/19 12:24:58;;;;;;;7.57;5.53;;;24.10;25.20;;;-142.21;32.00;112049.66;4997210;28;20223;-77
2022/03/19 12:27:26;;;;;;;7.27;6.23;;;24.20;24.90;;;-142.21;31.84;112049.66;4959377;29;20240;-81
2022/03/19 12:30:00;;;;;;;10.53;6.07;;;24.90;25.20;;;-142.21;31.48;112049.66;4993626;28;20212;-80
2022/03/19 12:32:28;;;;;;;7.77;5.90;;;25.60;24.70;;;-142.21;31.81;112049.66;4995746;28;20193;-78
2022/03/19 12:35:00;;;;;;;8.40;6.47;;;25.20;23.70;;;-142.21;31.46;112049.66;4994963;28;20268;-80
2022/03/19 12:37:28;;;;;;;7.30;6.30;;;24.90;24.30;;;-142.21;31.86;112049.66;4993571;28;20206;-80
2022/03/19 12:40:22;;;;;;;8.63;6.33;;;24.90;24.20;;;-142.21;32.08;112049.66;4993339;28;20222;-81
2022/03/19 12:42:55;;;;;;;5.80;5.03;;;25.40;24.80;;;-142.21;31.98;112049.66;4996530;28;20222;-83
2022/03/19 12:45:38;;;;;;;5.33;4.67;;;26.30;24.20;;;-142.21;30.69;112049.66;4997092;28;20260;-83
2022/03/19 12:48:14;;;;;;;6.80;5.30;;;25.70;23.90;;;-142.21;31.63;112049.66;4998043;28;20235;-84
2022/03/19 12:50:52;;;;;;;8.90;5.77;;;23.50;24.30;;;-142.21;31.73;112049.66;4997576;28;20204;-84
2022/03/19 12:53:31;;;;;;;8.27;5.30;;;23.30;25.00;;;-142.21;31.75;112049.66;4997264;28;20644;-82
2022/03/19 12:56:14;;;;;;;6.43;5.17;;;23.80;25.10;;;-142.21;30.57;112049.66;4996968;28;20266;-86
2022/03/19 12:58:49;;;;;;;6.07;4.87;;;24.30;24.20;;;-142.21;30.81;112049.66;4996837;28;20636;-86
2022/03/19 13:01:19;;;;;;;6.73;4.93;;;24.20;24.30;;;-142.21;30.69;112049.66;4997057;28;20230;-86
2022/03/19 13:03:47;;;;;;;6.23;5.23;;;23.50;24.40;;;-142.21;31.14;112049.66;4997613;28;20207;-84
2022/03/19 13:06:29;;;;;;;5.53;4.43;;;23.40;24.50;;;-142.21;30.88;112049.66;4995663;28;20684;-83
2022/03/19 13:09:07;;;;;;;7.63;3.97;;;22.90;24.90;;;-142.21;31.84;112049.66;4994161;28;20277;-84
2022/03/19 13:11:44;;;;;;;5.73;4.17;;;22.60;24.90;;;-142.21;30.88;112049.66;4994922;28;20213;-83
2022/03/19 13:14:14;;;;;;;5.83;4.53;;;22.00;25.20;;;-142.21;30.70;112049.66;4997229;28;20278;-82
2022/03/19 13:16:45;;;;;;;4.73;3.87;;;21.90;26.00;;;-142.21;30.63;112049.66;4996106;28;20223;-85
2022/03/19 13:19:14;;;;;;;6.40;4.27;;;21.70;25.90;;;-142.21;31.73;112049.66;4996857;28;20207;-83
2022/03/19 13:21:43;;;;;;;4.13;3.70;;;21.60;26.50;;;-142.21;31.86;112049.66;4996207;28;20237;-77
2022/03/19 13:24:11;;;;;;;7.63;3.67;;;21.60;26.30;;;-142.21;31.58;112049.66;4997626;28;20208;-83
2022/03/19 13:26:44;;;;;;;5.63;3.27;;;21.80;26.80;;;-142.21;30.63;112049.66;4996248;28;20273;-84
2022/03/19 13:29:29;;;;;;;5.23;3.33;;;21.50;26.10;;;-142.21;30.14;112049.66;4995904;28;20279;-80
2022/03/19 13:32:05;;;;;;;4.77;3.73;;;20.40;26.20;;;-142.21;30.34;112049.66;4994769;28;20715;-84
2022/03/19 13:34:36;;;;;;;4.83;3.23;;;20.00;25.90;;;-142.21;29.34;112049.66;4997450;28;20303;-82
2022/03/19 13:37:06;;;;;;;4.37;3.40;;;19.50;26.30;;;-142.21;29.50;112049.66;4996498;28;20208;-83
2022/03/19 13:39:38;;;;;;;3.13;2.70;;;19.80;26.20;;;-142.21;28.90;112049.66;4995559;28;20537;-81